sensor_id;sensor_type;location;lat;lon;timestamp;temperature;humidity
913;DHT22;443;51.448;7.028;2022-08-19T00:00:49;21.90;82.00
913;DHT22;443;51.448;7.028;2022-08-19T00:03:17;21.80;82.10
913;DHT22;443;51.448;7.028;2022-08-19T00:05:45;21.80;82.30
913;DHT22;443;51.448;7.028;2022-08-19T00:08:12;21.80;82.40
913;DHT22;443;51.448;7.028;2022-08-19T00:10:39;21.90;82.20
913;DHT22;443;51.448;7.028;2022-08-19T00:13:06;21.90;82.40
913;DHT22;443;51.448;7.028;2022-08-19T00:15:32;21.90;82.00
913;DHT22;443;51.448;7.028;2022-08-19T00:17:59;21.80;81.80
913;DHT22;443;51.448;7.028;2022-08-19T00:20:26;21.70;82.10
913;DHT22;443;51.448;7.028;2022-08-19T00:22:55;21.70;82.40
913;DHT22;443;51.448;7.028;2022-08-19T00:25:21;21.70;82.60
913;DHT22;443;51.448;7.028;2022-08-19T00:27:50;21.70;82.50
913;DHT22;443;51.448;7.028;2022-08-19T00:30:17;21.70;82.60
913;DHT22;443;51.448;7.028;2022-08-19T00:32:44;21.70;82.50
913;DHT22;443;51.448;7.028;2022-08-19T00:35:10;21.60;82.60
913;DHT22;443;51.448;7.028;2022-08-19T00:37:38;21.70;82.90
913;DHT22;443;51.448;7.028;2022-08-19T00:40:11;21.80;82.90
913;DHT22;443;51.448;7.028;2022-08-19T00:42:38;21.80;82.50
913;DHT22;443;51.448;7.028;2022-08-19T00:45:11;21.80;82.20
913;DHT22;443;51.448;7.028;2022-08-19T00:47:39;21.80;82.50
913;DHT22;443;51.448;7.028;2022-08-19T00:50:07;21.70;82.10
913;DHT22;443;51.448;7.028;2022-08-19T00:52:37;21.60;82.40
913;DHT22;443;51.448;7.028;2022-08-19T00:55:10;21.70;82.60
913;DHT22;443;51.448;7.028;2022-08-19T00:57:39;21.60;82.70
913;DHT22;443;51.448;7.028;2022-08-19T01:00:09;21.60;82.90
913;DHT22;443;51.448;7.028;2022-08-19T01:02:37;21.60;82.90
913;DHT22;443;51.448;7.028;2022-08-19T01:05:08;21.60;83.20
913;DHT22;443;51.448;7.028;2022-08-19T01:07:37;21.60;82.70
913;DHT22;443;51.448;7.028;2022-08-19T01:10:07;21.60;82.60
913;DHT22;443;51.448;7.028;2022-08-19T01:12:37;21.60;82.90
913;DHT22;443;51.448;7.028;2022-08-19T01:15:06;21.60;83.00
913;DHT22;443;51.448;7.028;2022-08-19T01:17:33;21.60;82.70
913;DHT22;443;51.448;7.028;2022-08-19T01:20:00;21.60;82.90
913;DHT22;443;51.448;7.028;2022-08-19T01:22:30;21.60;83.30
913;DHT22;443;51.448;7.028;2022-08-19T01:24:58;21.60;82.50
913;DHT22;443;51.448;7.028;2022-08-19T01:27:25;21.60;82.80
913;DHT22;443;51.448;7.028;2022-08-19T01:29:51;21.60;82.90
913;DHT22;443;51.448;7.028;2022-08-19T01:32:19;21.60;83.40
913;DHT22;443;51.448;7.028;2022-08-19T01:34:45;21.60;83.40
913;DHT22;443;51.448;7.028;2022-08-19T01:37:14;21.60;83.00
913;DHT22;443;51.448;7.028;2022-08-19T01:39:42;21.60;83.40
913;DHT22;443;51.448;7.028;2022-08-19T01:42:09;21.60;83.00
913;DHT22;443;51.448;7.028;2022-08-19T01:44:37;21.60;83.40
913;DHT22;443;51.448;7.028;2022-08-19T01:47:06;21.60;83.10
913;DHT22;443;51.448;7.028;2022-08-19T01:49:34;21.60;83.60
913;DHT22;443;51.448;7.028;2022-08-19T01:52:03;21.60;83.30
913;DHT22;443;51.448;7.028;2022-08-19T01:54:30;21.60;83.40
913;DHT22;443;51.448;7.028;2022-08-19T01:57:03;21.60;83.10
913;DHT22;443;51.448;7.028;2022-08-19T01:59:32;21.60;83.40
913;DHT22;443;51.448;7.028;2022-08-19T02:01:59;21.60;84.00
913;DHT22;443;51.448;7.028;2022-08-19T02:04:26;21.50;83.20
913;DHT22;443;51.448;7.028;2022-08-19T02:06:53;21.50;83.30
913;DHT22;443;51.448;7.028;2022-08-19T02:09:20;21.40;83.40
913;DHT22;443;51.448;7.028;2022-08-19T02:11:47;21.40;83.60
913;DHT22;443;51.448;7.028;2022-08-19T02:14:15;21.40;83.50
913;DHT22;443;51.448;7.028;2022-08-19T02:16:42;21.40;83.30
913;DHT22;443;51.448;7.028;2022-08-19T02:19:09;21.40;83.90
913;DHT22;443;51.448;7.028;2022-08-19T02:21:36;21.40;84.20
913;DHT22;443;51.448;7.028;2022-08-19T02:24:03;21.30;84.40
913;DHT22;443;51.448;7.028;2022-08-19T02:26:31;21.40;83.60
913;DHT22;443;51.448;7.028;2022-08-19T02:28:58;21.40;84.20
913;DHT22;443;51.448;7.028;2022-08-19T02:31:27;21.40;84.10
913;DHT22;443;51.448;7.028;2022-08-19T02:33:54;21.40;83.50
913;DHT22;443;51.448;7.028;2022-08-19T02:36:22;21.40;83.80
913;DHT22;443;51.448;7.028;2022-08-19T02:38:49;21.40;83.90
913;DHT22;443;51.448;7.028;2022-08-19T02:41:17;21.30;84.10
913;DHT22;443;51.448;7.028;2022-08-19T02:43:45;21.40;83.50
913;DHT22;443;51.448;7.028;2022-08-19T02:46:14;21.40;83.70
913;DHT22;443;51.448;7.028;2022-08-19T02:48:44;21.40;84.00
913;DHT22;443;51.448;7.028;2022-08-19T02:51:16;21.40;83.80
913;DHT22;443;51.448;7.028;2022-08-19T02:53:43;21.40;83.80
913;DHT22;443;51.448;7.028;2022-08-19T02:56:10;21.30;84.20
913;DHT22;443;51.448;7.028;2022-08-19T02:58:37;21.30;84.40
913;DHT22;443;51.448;7.028;2022-08-19T03:01:04;21.30;84.20
913;DHT22;443;51.448;7.028;2022-08-19T03:03:31;21.30;85.20
913;DHT22;443;51.448;7.028;2022-08-19T03:06:08;21.30;84.20
913;DHT22;443;51.448;7.028;2022-08-19T03:08:36;21.30;84.00
913;DHT22;443;51.448;7.028;2022-08-19T03:11:03;21.30;84.10
913;DHT22;443;51.448;7.028;2022-08-19T03:13:30;21.30;84.70
913;DHT22;443;51.448;7.028;2022-08-19T03:15:57;21.30;84.40
913;DHT22;443;51.448;7.028;2022-08-19T03:18:24;21.30;84.50
913;DHT22;443;51.448;7.028;2022-08-19T03:20:52;21.20;84.70
913;DHT22;443;51.448;7.028;2022-08-19T03:23:21;21.30;84.60
913;DHT22;443;51.448;7.028;2022-08-19T03:25:50;21.30;85.00
913;DHT22;443;51.448;7.028;2022-08-19T03:28:17;21.20;84.20
913;DHT22;443;51.448;7.028;2022-08-19T03:30:55;21.30;84.60
913;DHT22;443;51.448;7.028;2022-08-19T03:33:22;21.30;83.90
913;DHT22;443;51.448;7.028;2022-08-19T03:36:03;21.30;84.20
913;DHT22;443;51.448;7.028;2022-08-19T03:38:31;21.20;84.40
913;DHT22;443;51.448;7.028;2022-08-19T03:41:02;21.30;84.20
913;DHT22;443;51.448;7.028;2022-08-19T03:43:32;21.20;84.60
913;DHT22;443;51.448;7.028;2022-08-19T03:46:01;21.20;84.70
913;DHT22;443;51.448;7.028;2022-08-19T03:48:30;21.20;85.20
913;DHT22;443;51.448;7.028;2022-08-19T03:50:58;21.20;84.60
913;DHT22;443;51.448;7.028;2022-08-19T03:53:25;21.20;84.90
913;DHT22;443;51.448;7.028;2022-08-19T03:55:55;21.20;85.50
913;DHT22;443;51.448;7.028;2022-08-19T03:58:22;21.20;84.70
913;DHT22;443;51.448;7.028;2022-08-19T04:00:49;21.20;84.60
913;DHT22;443;51.448;7.028;2022-08-19T04:03:16;21.20;84.60
913;DHT22;443;51.448;7.028;2022-08-19T04:05:44;21.10;84.90
913;DHT22;443;51.448;7.028;2022-08-19T04:08:12;21.20;84.90
913;DHT22;443;51.448;7.028;2022-08-19T04:10:41;21.20;84.90
913;DHT22;443;51.448;7.028;2022-08-19T04:13:09;21.20;85.20
913;DHT22;443;51.448;7.028;2022-08-19T04:15:39;21.20;84.90
913;DHT22;443;51.448;7.028;2022-08-19T04:18:07;21.20;84.90
913;DHT22;443;51.448;7.028;2022-08-19T04:20:39;21.20;85.20
913;DHT22;443;51.448;7.028;2022-08-19T04:23:06;21.20;84.70
913;DHT22;443;51.448;7.028;2022-08-19T04:25:38;21.10;85.00
913;DHT22;443;51.448;7.028;2022-08-19T04:28:05;21.10;85.20
913;DHT22;443;51.448;7.028;2022-08-19T04:30:39;21.10;84.80
913;DHT22;443;51.448;7.028;2022-08-19T04:33:06;21.10;84.70
913;DHT22;443;51.448;7.028;2022-08-19T04:35:36;21.10;84.50
913;DHT22;443;51.448;7.028;2022-08-19T04:38:04;21.10;85.30
913;DHT22;443;51.448;7.028;2022-08-19T04:40:32;21.10;84.80
913;DHT22;443;51.448;7.028;2022-08-19T04:43:16;21.10;84.80
913;DHT22;443;51.448;7.028;2022-08-19T04:45:45;21.10;84.90
913;DHT22;443;51.448;7.028;2022-08-19T04:48:12;21.10;85.40
913;DHT22;443;51.448;7.028;2022-08-19T04:50:43;21.10;84.90
913;DHT22;443;51.448;7.028;2022-08-19T04:53:10;21.10;84.90
913;DHT22;443;51.448;7.028;2022-08-19T04:55:39;21.10;84.60
913;DHT22;443;51.448;7.028;2022-08-19T04:58:07;21.10;85.20
913;DHT22;443;51.448;7.028;2022-08-19T05:00:33;21.10;85.00
913;DHT22;443;51.448;7.028;2022-08-19T05:03:02;21.10;85.10
913;DHT22;443;51.448;7.028;2022-08-19T05:05:28;21.10;85.60
913;DHT22;443;51.448;7.028;2022-08-19T05:07:57;21.00;85.30
913;DHT22;443;51.448;7.028;2022-08-19T05:10:23;21.00;86.00
913;DHT22;443;51.448;7.028;2022-08-19T05:12:51;21.00;85.70
913;DHT22;443;51.448;7.028;2022-08-19T05:15:18;21.00;85.20
913;DHT22;443;51.448;7.028;2022-08-19T05:17:45;21.00;85.30
913;DHT22;443;51.448;7.028;2022-08-19T05:20:39;21.10;85.20
913;DHT22;443;51.448;7.028;2022-08-19T05:23:23;21.00;85.20
913;DHT22;443;51.448;7.028;2022-08-19T05:25:50;21.00;85.40
913;DHT22;443;51.448;7.028;2022-08-19T05:28:17;21.00;85.40
913;DHT22;443;51.448;7.028;2022-08-19T05:30:44;21.00;85.50
913;DHT22;443;51.448;7.028;2022-08-19T05:33:11;21.00;85.00
913;DHT22;443;51.448;7.028;2022-08-19T05:35:40;21.00;85.20
913;DHT22;443;51.448;7.028;2022-08-19T05:38:08;21.00;85.60
913;DHT22;443;51.448;7.028;2022-08-19T05:40:35;21.10;85.80
913;DHT22;443;51.448;7.028;2022-08-19T05:43:03;21.10;85.50
913;DHT22;443;51.448;7.028;2022-08-19T05:45:30;21.00;85.70
913;DHT22;443;51.448;7.028;2022-08-19T05:47:57;21.00;85.70
913;DHT22;443;51.448;7.028;2022-08-19T05:50:24;21.00;85.60
913;DHT22;443;51.448;7.028;2022-08-19T05:52:53;21.10;85.40
913;DHT22;443;51.448;7.028;2022-08-19T05:55:20;21.10;85.90
913;DHT22;443;51.448;7.028;2022-08-19T05:57:48;21.10;86.10
913;DHT22;443;51.448;7.028;2022-08-19T06:00:15;21.10;85.70
913;DHT22;443;51.448;7.028;2022-08-19T06:02:42;21.20;85.70
913;DHT22;443;51.448;7.028;2022-08-19T06:05:10;21.20;85.80
913;DHT22;443;51.448;7.028;2022-08-19T06:07:37;21.20;85.20
913;DHT22;443;51.448;7.028;2022-08-19T06:10:09;21.20;85.60
913;DHT22;443;51.448;7.028;2022-08-19T06:12:36;21.20;85.80
913;DHT22;443;51.448;7.028;2022-08-19T06:15:05;21.20;86.10
913;DHT22;443;51.448;7.028;2022-08-19T06:17:33;21.20;85.80
913;DHT22;443;51.448;7.028;2022-08-19T06:20:00;21.30;86.00
913;DHT22;443;51.448;7.028;2022-08-19T06:22:28;21.40;85.50
913;DHT22;443;51.448;7.028;2022-08-19T06:24:55;21.40;85.80
913;DHT22;443;51.448;7.028;2022-08-19T06:27:24;21.50;86.20
913;DHT22;443;51.448;7.028;2022-08-19T06:29:50;21.60;85.10
913;DHT22;443;51.448;7.028;2022-08-19T06:32:18;21.50;85.50
913;DHT22;443;51.448;7.028;2022-08-19T06:34:45;21.60;85.40
913;DHT22;443;51.448;7.028;2022-08-19T06:37:12;21.50;85.80
913;DHT22;443;51.448;7.028;2022-08-19T06:39:41;21.60;85.70
913;DHT22;443;51.448;7.028;2022-08-19T06:42:10;21.60;85.50
913;DHT22;443;51.448;7.028;2022-08-19T06:44:44;21.50;85.70
913;DHT22;443;51.448;7.028;2022-08-19T06:47:13;21.50;85.90
913;DHT22;443;51.448;7.028;2022-08-19T06:49:41;21.50;85.70
913;DHT22;443;51.448;7.028;2022-08-19T06:52:09;21.50;86.50
913;DHT22;443;51.448;7.028;2022-08-19T06:54:37;21.50;85.90
913;DHT22;443;51.448;7.028;2022-08-19T06:57:05;21.60;86.30
913;DHT22;443;51.448;7.028;2022-08-19T06:59:34;21.60;85.40
913;DHT22;443;51.448;7.028;2022-08-19T07:02:05;21.70;86.00
913;DHT22;443;51.448;7.028;2022-08-19T07:04:33;21.80;85.40
913;DHT22;443;51.448;7.028;2022-08-19T07:07:03;21.90;85.10
913;DHT22;443;51.448;7.028;2022-08-19T07:09:32;21.90;85.30
913;DHT22;443;51.448;7.028;2022-08-19T07:11:58;21.80;85.00
913;DHT22;443;51.448;7.028;2022-08-19T07:14:27;21.80;85.20
913;DHT22;443;51.448;7.028;2022-08-19T07:16:55;21.70;85.30
913;DHT22;443;51.448;7.028;2022-08-19T07:19:25;21.70;85.20
913;DHT22;443;51.448;7.028;2022-08-19T07:21:54;21.70;85.30
913;DHT22;443;51.448;7.028;2022-08-19T07:24:22;21.70;85.10
913;DHT22;443;51.448;7.028;2022-08-19T07:26:51;21.70;85.10
913;DHT22;443;51.448;7.028;2022-08-19T07:29:20;21.70;85.40
913;DHT22;443;51.448;7.028;2022-08-19T07:31:48;21.80;85.40
913;DHT22;443;51.448;7.028;2022-08-19T07:34:16;21.80;85.00
913;DHT22;443;51.448;7.028;2022-08-19T07:36:45;21.90;84.90
913;DHT22;443;51.448;7.028;2022-08-19T07:39:14;21.90;85.20
913;DHT22;443;51.448;7.028;2022-08-19T07:41:42;22.00;85.10
913;DHT22;443;51.448;7.028;2022-08-19T07:44:10;22.00;84.70
913;DHT22;443;51.448;7.028;2022-08-19T07:46:41;21.90;84.70
913;DHT22;443;51.448;7.028;2022-08-19T07:49:09;21.90;84.80
913;DHT22;443;51.448;7.028;2022-08-19T07:51:47;22.00;84.70
913;DHT22;443;51.448;7.028;2022-08-19T07:54:15;22.00;84.60
913;DHT22;443;51.448;7.028;2022-08-19T07:56:41;22.00;84.70
913;DHT22;443;51.448;7.028;2022-08-19T07:59:08;22.00;84.50
913;DHT22;443;51.448;7.028;2022-08-19T08:01:36;22.10;84.90
913;DHT22;443;51.448;7.028;2022-08-19T08:04:03;22.00;84.50
913;DHT22;443;51.448;7.028;2022-08-19T08:06:49;22.10;84.60
913;DHT22;443;51.448;7.028;2022-08-19T08:09:35;22.00;84.70
913;DHT22;443;51.448;7.028;2022-08-19T08:12:05;22.10;84.80
913;DHT22;443;51.448;7.028;2022-08-19T08:14:36;22.00;84.70
913;DHT22;443;51.448;7.028;2022-08-19T08:17:05;22.00;84.90
913;DHT22;443;51.448;7.028;2022-08-19T08:19:32;22.00;84.80
913;DHT22;443;51.448;7.028;2022-08-19T08:22:01;22.00;85.00
913;DHT22;443;51.448;7.028;2022-08-19T08:24:31;22.00;84.90
913;DHT22;443;51.448;7.028;2022-08-19T08:27:00;22.10;84.90
913;DHT22;443;51.448;7.028;2022-08-19T08:29:29;22.10;84.80
913;DHT22;443;51.448;7.028;2022-08-19T08:31:57;22.10;84.70
913;DHT22;443;51.448;7.028;2022-08-19T08:34:24;22.10;84.40
913;DHT22;443;51.448;7.028;2022-08-19T08:36:51;22.20;84.50
913;DHT22;443;51.448;7.028;2022-08-19T08:39:20;22.30;84.50
913;DHT22;443;51.448;7.028;2022-08-19T08:41:52;22.30;84.20
913;DHT22;443;51.448;7.028;2022-08-19T08:44:22;22.30;84.20
913;DHT22;443;51.448;7.028;2022-08-19T08:46:53;22.30;84.40
913;DHT22;443;51.448;7.028;2022-08-19T08:49:30;22.30;84.40
913;DHT22;443;51.448;7.028;2022-08-19T08:52:03;22.30;84.10
913;DHT22;443;51.448;7.028;2022-08-19T08:54:35;22.30;84.00
913;DHT22;443;51.448;7.028;2022-08-19T08:57:04;22.30;84.10
913;DHT22;443;51.448;7.028;2022-08-19T08:59:37;22.30;83.90
913;DHT22;443;51.448;7.028;2022-08-19T09:02:07;22.30;84.00
913;DHT22;443;51.448;7.028;2022-08-19T09:04:34;22.30;83.90
913;DHT22;443;51.448;7.028;2022-08-19T09:07:16;22.30;83.70
913;DHT22;443;51.448;7.028;2022-08-19T09:09:50;22.30;83.80
913;DHT22;443;51.448;7.028;2022-08-19T09:12:24;22.40;83.80
913;DHT22;443;51.448;7.028;2022-08-19T09:14:56;22.40;83.80
913;DHT22;443;51.448;7.028;2022-08-19T09:17:28;22.40;83.80
913;DHT22;443;51.448;7.028;2022-08-19T09:20:02;22.30;83.70
913;DHT22;443;51.448;7.028;2022-08-19T09:22:30;22.30;83.80
913;DHT22;443;51.448;7.028;2022-08-19T09:24:59;22.40;83.90
913;DHT22;443;51.448;7.028;2022-08-19T09:27:27;22.40;83.80
913;DHT22;443;51.448;7.028;2022-08-19T09:29:54;22.40;83.80
913;DHT22;443;51.448;7.028;2022-08-19T09:32:22;22.40;83.70
913;DHT22;443;51.448;7.028;2022-08-19T09:34:49;22.40;83.60
913;DHT22;443;51.448;7.028;2022-08-19T09:37:20;22.40;83.60
913;DHT22;443;51.448;7.028;2022-08-19T09:39:47;22.50;83.70
913;DHT22;443;51.448;7.028;2022-08-19T09:42:15;22.40;83.40
913;DHT22;443;51.448;7.028;2022-08-19T09:44:43;22.40;83.40
913;DHT22;443;51.448;7.028;2022-08-19T09:47:12;22.50;83.40
913;DHT22;443;51.448;7.028;2022-08-19T09:49:40;22.40;83.50
913;DHT22;443;51.448;7.028;2022-08-19T09:52:08;22.40;83.30
913;DHT22;443;51.448;7.028;2022-08-19T09:54:35;22.50;83.40
913;DHT22;443;51.448;7.028;2022-08-19T09:57:03;22.50;83.40
913;DHT22;443;51.448;7.028;2022-08-19T09:59:33;22.50;83.50
913;DHT22;443;51.448;7.028;2022-08-19T10:02:00;22.50;83.40
913;DHT22;443;51.448;7.028;2022-08-19T10:04:27;22.50;83.30
913;DHT22;443;51.448;7.028;2022-08-19T10:07:14;22.50;83.40
913;DHT22;443;51.448;7.028;2022-08-19T10:09:41;22.50;83.20
913;DHT22;443;51.448;7.028;2022-08-19T10:12:08;22.50;83.40
913;DHT22;443;51.448;7.028;2022-08-19T10:14:36;22.60;83.20
913;DHT22;443;51.448;7.028;2022-08-19T10:17:04;22.50;83.20
913;DHT22;443;51.448;7.028;2022-08-19T10:19:31;22.50;83.30
913;DHT22;443;51.448;7.028;2022-08-19T10:22:03;22.50;83.10
913;DHT22;443;51.448;7.028;2022-08-19T10:24:31;22.50;83.30
913;DHT22;443;51.448;7.028;2022-08-19T10:27:00;22.50;84.00
913;DHT22;443;51.448;7.028;2022-08-19T10:29:29;22.50;84.00
913;DHT22;443;51.448;7.028;2022-08-19T10:31:58;22.50;83.40
913;DHT22;443;51.448;7.028;2022-08-19T10:34:26;22.50;83.20
913;DHT22;443;51.448;7.028;2022-08-19T10:36:54;22.60;83.30
913;DHT22;443;51.448;7.028;2022-08-19T10:39:21;22.60;83.20
913;DHT22;443;51.448;7.028;2022-08-19T10:41:48;22.60;83.20
913;DHT22;443;51.448;7.028;2022-08-19T10:44:15;22.60;83.10
913;DHT22;443;51.448;7.028;2022-08-19T10:46:44;22.60;83.20
913;DHT22;443;51.448;7.028;2022-08-19T10:49:13;22.60;82.90
913;DHT22;443;51.448;7.028;2022-08-19T10:51:41;22.60;83.00
913;DHT22;443;51.448;7.028;2022-08-19T10:54:26;22.60;83.20
913;DHT22;443;51.448;7.028;2022-08-19T10:57:13;22.60;83.30
913;DHT22;443;51.448;7.028;2022-08-19T10:59:39;22.60;83.20
913;DHT22;443;51.448;7.028;2022-08-19T11:02:10;22.60;83.00
913;DHT22;443;51.448;7.028;2022-08-19T11:04:39;22.60;83.70
913;DHT22;443;51.448;7.028;2022-08-19T11:07:06;22.60;83.00
913;DHT22;443;51.448;7.028;2022-08-19T11:09:38;22.60;82.90
913;DHT22;443;51.448;7.028;2022-08-19T11:12:06;22.70;83.00
913;DHT22;443;51.448;7.028;2022-08-19T11:14:34;22.70;82.60
913;DHT22;443;51.448;7.028;2022-08-19T11:17:01;22.70;82.60
913;DHT22;443;51.448;7.028;2022-08-19T11:19:28;22.70;82.60
913;DHT22;443;51.448;7.028;2022-08-19T11:21:57;22.70;82.60
913;DHT22;443;51.448;7.028;2022-08-19T11:24:28;22.70;82.60
913;DHT22;443;51.448;7.028;2022-08-19T11:27:01;22.70;82.30
913;DHT22;443;51.448;7.028;2022-08-19T11:29:30;22.70;82.50
913;DHT22;443;51.448;7.028;2022-08-19T11:31:57;22.70;82.70
913;DHT22;443;51.448;7.028;2022-08-19T11:34:27;22.70;82.40
913;DHT22;443;51.448;7.028;2022-08-19T11:36:56;22.70;82.40
913;DHT22;443;51.448;7.028;2022-08-19T11:39:26;22.70;82.50
913;DHT22;443;51.448;7.028;2022-08-19T11:41:53;22.70;82.40
913;DHT22;443;51.448;7.028;2022-08-19T11:44:20;22.80;82.50
913;DHT22;443;51.448;7.028;2022-08-19T11:46:47;22.70;82.30
913;DHT22;443;51.448;7.028;2022-08-19T11:49:15;22.70;82.40
913;DHT22;443;51.448;7.028;2022-08-19T11:51:44;22.70;82.20
913;DHT22;443;51.448;7.028;2022-08-19T11:54:14;22.80;82.50
913;DHT22;443;51.448;7.028;2022-08-19T11:56:41;22.80;82.40
913;DHT22;443;51.448;7.028;2022-08-19T11:59:09;22.70;82.30
913;DHT22;443;51.448;7.028;2022-08-19T12:01:36;22.80;82.50
913;DHT22;443;51.448;7.028;2022-08-19T12:04:03;22.80;82.60
913;DHT22;443;51.448;7.028;2022-08-19T12:06:32;22.80;82.40
913;DHT22;443;51.448;7.028;2022-08-19T12:09:02;22.80;82.70
913;DHT22;443;51.448;7.028;2022-08-19T12:11:32;22.70;82.50
913;DHT22;443;51.448;7.028;2022-08-19T12:13:59;22.80;82.50
913;DHT22;443;51.448;7.028;2022-08-19T12:16:27;22.80;82.70
913;DHT22;443;51.448;7.028;2022-08-19T12:18:56;22.70;82.40
913;DHT22;443;51.448;7.028;2022-08-19T12:21:26;22.80;82.00
913;DHT22;443;51.448;7.028;2022-08-19T12:23:55;22.80;82.40
913;DHT22;443;51.448;7.028;2022-08-19T12:26:22;22.80;82.50
913;DHT22;443;51.448;7.028;2022-08-19T12:28:51;22.80;82.50
913;DHT22;443;51.448;7.028;2022-08-19T12:31:18;22.80;82.50
913;DHT22;443;51.448;7.028;2022-08-19T12:33:46;22.80;82.50
913;DHT22;443;51.448;7.028;2022-08-19T12:36:15;22.80;82.20
913;DHT22;443;51.448;7.028;2022-08-19T12:38:43;22.80;82.20
913;DHT22;443;51.448;7.028;2022-08-19T12:41:12;22.80;82.30
913;DHT22;443;51.448;7.028;2022-08-19T12:43:40;22.80;82.50
913;DHT22;443;51.448;7.028;2022-08-19T12:46:09;22.80;82.40
913;DHT22;443;51.448;7.028;2022-08-19T12:48:37;22.80;82.30
913;DHT22;443;51.448;7.028;2022-08-19T12:51:09;22.80;82.20
913;DHT22;443;51.448;7.028;2022-08-19T12:53:37;22.80;82.40
913;DHT22;443;51.448;7.028;2022-08-19T12:56:04;22.80;82.30
913;DHT22;443;51.448;7.028;2022-08-19T12:58:31;22.90;82.40
913;DHT22;443;51.448;7.028;2022-08-19T13:00:59;22.90;81.70
913;DHT22;443;51.448;7.028;2022-08-19T13:03:28;22.90;81.90
913;DHT22;443;51.448;7.028;2022-08-19T13:05:55;22.90;82.10
913;DHT22;443;51.448;7.028;2022-08-19T13:08:22;22.90;82.00
913;DHT22;443;51.448;7.028;2022-08-19T13:10:48;22.90;81.80
913;DHT22;443;51.448;7.028;2022-08-19T13:13:16;22.90;81.50
913;DHT22;443;51.448;7.028;2022-08-19T13:15:43;23.00;81.20
913;DHT22;443;51.448;7.028;2022-08-19T13:18:11;23.00;81.60
913;DHT22;443;51.448;7.028;2022-08-19T13:20:40;23.00;81.70
913;DHT22;443;51.448;7.028;2022-08-19T13:23:07;23.00;81.90
913;DHT22;443;51.448;7.028;2022-08-19T13:25:34;23.00;82.00
913;DHT22;443;51.448;7.028;2022-08-19T13:28:02;23.00;81.70
913;DHT22;443;51.448;7.028;2022-08-19T13:30:32;23.00;81.20
913;DHT22;443;51.448;7.028;2022-08-19T13:33:17;23.00;81.60
913;DHT22;443;51.448;7.028;2022-08-19T13:35:48;23.00;81.60
913;DHT22;443;51.448;7.028;2022-08-19T13:38:19;23.00;81.30
913;DHT22;443;51.448;7.028;2022-08-19T13:40:46;23.00;82.20
913;DHT22;443;51.448;7.028;2022-08-19T13:43:15;23.00;81.40
913;DHT22;443;51.448;7.028;2022-08-19T13:45:42;23.10;81.30
913;DHT22;443;51.448;7.028;2022-08-19T13:48:10;23.10;81.40
913;DHT22;443;51.448;7.028;2022-08-19T13:50:39;23.10;81.00
913;DHT22;443;51.448;7.028;2022-08-19T13:53:09;23.20;80.90
913;DHT22;443;51.448;7.028;2022-08-19T13:55:37;23.30;80.40
913;DHT22;443;51.448;7.028;2022-08-19T13:58:04;23.50;79.50
913;DHT22;443;51.448;7.028;2022-08-19T14:00:35;23.60;79.70
913;DHT22;443;51.448;7.028;2022-08-19T14:03:03;23.60;79.20
913;DHT22;443;51.448;7.028;2022-08-19T14:05:31;23.60;78.60
913;DHT22;443;51.448;7.028;2022-08-19T14:07:58;23.80;78.80
913;DHT22;443;51.448;7.028;2022-08-19T14:10:27;23.80;78.40
913;DHT22;443;51.448;7.028;2022-08-19T14:12:58;23.80;77.90
913;DHT22;443;51.448;7.028;2022-08-19T14:15:26;24.00;77.20
913;DHT22;443;51.448;7.028;2022-08-19T14:17:53;24.00;77.00
913;DHT22;443;51.448;7.028;2022-08-19T14:20:21;24.10;77.50
913;DHT22;443;51.448;7.028;2022-08-19T14:22:49;24.10;77.30
913;DHT22;443;51.448;7.028;2022-08-19T14:25:18;24.10;77.30
913;DHT22;443;51.448;7.028;2022-08-19T14:27:48;24.10;77.40
913;DHT22;443;51.448;7.028;2022-08-19T14:30:17;24.00;77.50
913;DHT22;443;51.448;7.028;2022-08-19T14:32:46;24.10;77.20
913;DHT22;443;51.448;7.028;2022-08-19T14:35:14;24.20;76.70
913;DHT22;443;51.448;7.028;2022-08-19T14:37:42;24.20;76.80
913;DHT22;443;51.448;7.028;2022-08-19T14:40:10;24.20;76.70
913;DHT22;443;51.448;7.028;2022-08-19T14:42:37;24.10;76.90
913;DHT22;443;51.448;7.028;2022-08-19T14:45:07;24.20;76.80
913;DHT22;443;51.448;7.028;2022-08-19T14:47:35;24.20;77.00
913;DHT22;443;51.448;7.028;2022-08-19T14:50:01;24.30;76.70
913;DHT22;443;51.448;7.028;2022-08-19T14:52:28;24.50;75.80
913;DHT22;443;51.448;7.028;2022-08-19T14:54:55;24.40;75.90
913;DHT22;443;51.448;7.028;2022-08-19T14:57:22;24.30;76.60
913;DHT22;443;51.448;7.028;2022-08-19T14:59:49;24.30;76.60
913;DHT22;443;51.448;7.028;2022-08-19T15:02:17;24.40;76.40
913;DHT22;443;51.448;7.028;2022-08-19T15:04:44;24.30;76.50
913;DHT22;443;51.448;7.028;2022-08-19T15:07:11;24.20;76.90
913;DHT22;443;51.448;7.028;2022-08-19T15:09:37;24.20;77.60
913;DHT22;443;51.448;7.028;2022-08-19T15:12:05;24.10;77.30
913;DHT22;443;51.448;7.028;2022-08-19T15:14:31;24.00;77.60
913;DHT22;443;51.448;7.028;2022-08-19T15:17:01;23.90;77.90
913;DHT22;443;51.448;7.028;2022-08-19T15:19:29;23.80;78.10
913;DHT22;443;51.448;7.028;2022-08-19T15:21:57;23.80;78.40
913;DHT22;443;51.448;7.028;2022-08-19T15:24:25;23.70;78.50
913;DHT22;443;51.448;7.028;2022-08-19T15:26:52;23.70;78.40
913;DHT22;443;51.448;7.028;2022-08-19T15:29:19;23.70;78.50
913;DHT22;443;51.448;7.028;2022-08-19T15:31:46;23.80;78.40
913;DHT22;443;51.448;7.028;2022-08-19T15:34:13;23.90;78.10
913;DHT22;443;51.448;7.028;2022-08-19T15:36:41;23.90;77.90
913;DHT22;443;51.448;7.028;2022-08-19T15:39:08;23.90;77.80
913;DHT22;443;51.448;7.028;2022-08-19T15:41:36;23.90;77.60
913;DHT22;443;51.448;7.028;2022-08-19T15:44:06;24.00;77.70
913;DHT22;443;51.448;7.028;2022-08-19T15:46:35;23.90;77.80
913;DHT22;443;51.448;7.028;2022-08-19T15:49:04;23.90;77.90
913;DHT22;443;51.448;7.028;2022-08-19T15:51:32;23.90;78.10
913;DHT22;443;51.448;7.028;2022-08-19T15:54:02;23.90;78.00
913;DHT22;443;51.448;7.028;2022-08-19T15:56:29;23.90;77.80
913;DHT22;443;51.448;7.028;2022-08-19T15:59:09;24.00;77.40
913;DHT22;443;51.448;7.028;2022-08-19T16:01:54;24.10;77.10
913;DHT22;443;51.448;7.028;2022-08-19T16:04:38;24.20;77.00
913;DHT22;443;51.448;7.028;2022-08-19T16:07:22;24.20;76.70
913;DHT22;443;51.448;7.028;2022-08-19T16:09:50;24.30;77.30
913;DHT22;443;51.448;7.028;2022-08-19T16:12:17;24.50;76.00
913;DHT22;443;51.448;7.028;2022-08-19T16:14:44;24.80;75.10
913;DHT22;443;51.448;7.028;2022-08-19T16:17:13;25.10;74.20
913;DHT22;443;51.448;7.028;2022-08-19T16:19:40;25.40;73.40
913;DHT22;443;51.448;7.028;2022-08-19T16:22:07;25.60;73.50
913;DHT22;443;51.448;7.028;2022-08-19T16:24:34;25.60;72.40
913;DHT22;443;51.448;7.028;2022-08-19T16:27:02;25.30;72.90
913;DHT22;443;51.448;7.028;2022-08-19T16:29:29;24.90;74.00
913;DHT22;443;51.448;7.028;2022-08-19T16:31:56;24.70;74.80
913;DHT22;443;51.448;7.028;2022-08-19T16:34:23;24.50;75.50
913;DHT22;443;51.448;7.028;2022-08-19T16:36:50;24.50;76.50
913;DHT22;443;51.448;7.028;2022-08-19T16:39:17;24.30;76.20
913;DHT22;443;51.448;7.028;2022-08-19T16:41:45;24.30;76.50
913;DHT22;443;51.448;7.028;2022-08-19T16:44:15;24.20;76.40